sensor_id;sensor_type;location;lat;lon;timestamp;P1;durP1;ratioP1;P2;durP2;ratioP2
4430;SDS011;2228;48.140;11.488;2022-12-07T00:00:49;15.43;;;10.27;;
4430;SDS011;2228;48.140;11.488;2022-12-07T00:03:17;16.98;;;10.65;;
4430;SDS011;2228;48.140;11.488;2022-12-07T00:05:45;14.30;;;9.30;;
4430;SDS011;2228;48.140;11.488;2022-12-07T00:08:12;15.73;;;10.67;;
4430;SDS011;2228;48.140;11.488;2022-12-07T00:10:39;16.13;;;10.27;;
4430;SDS011;2228;48.140;11.488;2022-12-07T00:13:06;16.10;;;10.40;;
4430;SDS011;2228;48.140;11.488;2022-12-07T00:15:33;16.02;;;10.40;;
4430;SDS011;2228;48.140;11.488;2022-12-07T00:18:01;13.27;;;9.02;;
4430;SDS011;2228;48.140;11.488;2022-12-07T00:20:28;14.98;;;10.30;;
4430;SDS011;2228;48.140;11.488;2022-12-07T00:22:56;14.70;;;10.00;;
4430;SDS011;2228;48.140;11.488;2022-12-07T00:25:23;14.27;;;9.50;;
4430;SDS011;2228;48.140;11.488;2022-12-07T00:27:51;16.75;;;10.10;;
4430;SDS011;2228;48.140;11.488;2022-12-07T00:30:20;15.23;;;9.65;;
4430;SDS011;2228;48.140;11.488;2022-12-07T00:32:47;16.30;;;10.02;;
4430;SDS011;2228;48.140;11.488;2022-12-07T00:35:14;13.80;;;9.75;;
4430;SDS011;2228;48.140;11.488;2022-12-07T00:37:41;15.10;;;9.95;;
4430;SDS011;2228;48.140;11.488;2022-12-07T00:40:10;13.25;;;9.38;;
4430;SDS011;2228;48.140;11.488;2022-12-07T00:42:38;13.98;;;9.10;;
4430;SDS011;2228;48.140;11.488;2022-12-07T00:45:05;16.80;;;10.15;;
4430;SDS011;2228;48.140;11.488;2022-12-07T00:47:33;15.00;;;9.70;;
4430;SDS011;2228;48.140;11.488;2022-12-07T00:50:00;15.18;;;9.88;;
4430;SDS011;2228;48.140;11.488;2022-12-07T00:52:27;13.57;;;9.32;;
4430;SDS011;2228;48.140;11.488;2022-12-07T00:54:54;16.00;;;10.20;;
4430;SDS011;2228;48.140;11.488;2022-12-07T00:57:22;13.63;;;9.48;;
4430;SDS011;2228;48.140;11.488;2022-12-07T00:59:49;14.82;;;10.38;;
4430;SDS011;2228;48.140;11.488;2022-12-07T01:02:20;15.45;;;9.95;;
4430;SDS011;2228;48.140;11.488;2022-12-07T01:04:47;15.97;;;10.27;;
4430;SDS011;2228;48.140;11.488;2022-12-07T01:07:14;13.45;;;9.43;;
4430;SDS011;2228;48.140;11.488;2022-12-07T01:09:41;15.32;;;9.20;;
4430;SDS011;2228;48.140;11.488;2022-12-07T01:12:08;15.30;;;9.20;;
4430;SDS011;2228;48.140;11.488;2022-12-07T01:14:37;12.40;;;8.60;;
4430;SDS011;2228;48.140;11.488;2022-12-07T01:17:04;14.30;;;9.73;;
4430;SDS011;2228;48.140;11.488;2022-12-07T01:19:31;13.85;;;9.20;;
4430;SDS011;2228;48.140;11.488;2022-12-07T01:21:58;14.10;;;9.65;;
4430;SDS011;2228;48.140;11.488;2022-12-07T01:24:26;13.90;;;9.70;;
4430;SDS011;2228;48.140;11.488;2022-12-07T01:26:53;13.98;;;9.00;;
4430;SDS011;2228;48.140;11.488;2022-12-07T01:29:20;15.65;;;9.40;;
4430;SDS011;2228;48.140;11.488;2022-12-07T01:31:49;12.52;;;9.07;;
4430;SDS011;2228;48.140;11.488;2022-12-07T01:34:16;13.05;;;9.35;;
4430;SDS011;2228;48.140;11.488;2022-12-07T01:36:43;13.55;;;8.80;;
4430;SDS011;2228;48.140;11.488;2022-12-07T01:39:10;12.77;;;8.80;;
4430;SDS011;2228;48.140;11.488;2022-12-07T01:41:38;15.68;;;9.60;;
4430;SDS011;2228;48.140;11.488;2022-12-07T01:44:16;14.05;;;9.40;;
4430;SDS011;2228;48.140;11.488;2022-12-07T01:46:45;16.23;;;9.43;;
4430;SDS011;2228;48.140;11.488;2022-12-07T01:49:16;18.27;;;9.60;;
4430;SDS011;2228;48.140;11.488;2022-12-07T01:51:47;15.13;;;9.50;;
4430;SDS011;2228;48.140;11.488;2022-12-07T01:54:17;13.50;;;10.10;;
4430;SDS011;2228;48.140;11.488;2022-12-07T01:56:47;16.30;;;8.80;;
4430;SDS011;2228;48.140;11.488;2022-12-07T01:59:18;13.85;;;9.40;;
4430;SDS011;2228;48.140;11.488;2022-12-07T02:01:49;15.40;;;9.60;;
4430;SDS011;2228;48.140;11.488;2022-12-07T02:04:19;14.90;;;9.80;;
4430;SDS011;2228;48.140;11.488;2022-12-07T02:06:47;13.70;;;9.20;;
4430;SDS011;2228;48.140;11.488;2022-12-07T02:09:16;13.23;;;9.07;;
4430;SDS011;2228;48.140;11.488;2022-12-07T02:11:43;14.47;;;10.07;;
4430;SDS011;2228;48.140;11.488;2022-12-07T02:14:11;14.30;;;9.52;;
4430;SDS011;2228;48.140;11.488;2022-12-07T02:16:40;13.20;;;9.93;;
4430;SDS011;2228;48.140;11.488;2022-12-07T02:22:34;13.15;;;9.00;;
4430;SDS011;2228;48.140;11.488;2022-12-07T02:25:20;14.95;;;10.40;;
4430;SDS011;2228;48.140;11.488;2022-12-07T02:27:58;14.05;;;10.18;;
4430;SDS011;2228;48.140;11.488;2022-12-07T02:30:32;13.85;;;9.05;;
4430;SDS011;2228;48.140;11.488;2022-12-07T02:33:07;14.95;;;9.75;;
4430;SDS011;2228;48.140;11.488;2022-12-07T02:35:40;16.67;;;10.70;;
4430;SDS011;2228;48.140;11.488;2022-12-07T02:38:11;14.40;;;9.57;;
4430;SDS011;2228;48.140;11.488;2022-12-07T02:40:51;15.95;;;10.68;;
4430;SDS011;2228;48.140;11.488;2022-12-07T02:43:22;15.25;;;10.82;;
4430;SDS011;2228;48.140;11.488;2022-12-07T02:45:53;13.32;;;9.50;;
4430;SDS011;2228;48.140;11.488;2022-12-07T02:48:24;14.10;;;10.30;;
4430;SDS011;2228;48.140;11.488;2022-12-07T02:50:52;15.38;;;9.40;;
4430;SDS011;2228;48.140;11.488;2022-12-07T02:53:30;16.58;;;10.48;;
4430;SDS011;2228;48.140;11.488;2022-12-07T02:55:59;16.30;;;10.13;;
4430;SDS011;2228;48.140;11.488;2022-12-07T02:58:48;13.68;;;10.05;;
4430;SDS011;2228;48.140;11.488;2022-12-07T03:01:28;15.57;;;9.52;;
4430;SDS011;2228;48.140;11.488;2022-12-07T03:04:05;15.73;;;10.50;;
4430;SDS011;2228;48.140;11.488;2022-12-07T03:06:41;16.40;;;10.35;;
4430;SDS011;2228;48.140;11.488;2022-12-07T03:09:15;15.52;;;10.43;;
4430;SDS011;2228;48.140;11.488;2022-12-07T03:11:47;15.82;;;10.43;;
4430;SDS011;2228;48.140;11.488;2022-12-07T03:14:17;16.08;;;10.20;;
4430;SDS011;2228;48.140;11.488;2022-12-07T03:16:52;15.40;;;9.85;;
4430;SDS011;2228;48.140;11.488;2022-12-07T03:19:27;12.95;;;9.13;;
4430;SDS011;2228;48.140;11.488;2022-12-07T03:21:55;14.50;;;9.90;;
4430;SDS011;2228;48.140;11.488;2022-12-07T03:24:25;14.45;;;9.73;;
4430;SDS011;2228;48.140;11.488;2022-12-07T03:27:04;12.57;;;9.43;;
4430;SDS011;2228;48.140;11.488;2022-12-07T03:29:36;16.33;;;10.05;;
4430;SDS011;2228;48.140;11.488;2022-12-07T03:32:10;15.70;;;9.52;;
4430;SDS011;2228;48.140;11.488;2022-12-07T03:34:44;15.00;;;9.52;;
4430;SDS011;2228;48.140;11.488;2022-12-07T03:37:16;15.95;;;10.35;;
4430;SDS011;2228;48.140;11.488;2022-12-07T03:39:49;16.80;;;10.05;;
4430;SDS011;2228;48.140;11.488;2022-12-07T03:42:23;15.18;;;10.07;;
4430;SDS011;2228;48.140;11.488;2022-12-07T03:44:51;18.50;;;11.27;;
4430;SDS011;2228;48.140;11.488;2022-12-07T03:47:20;16.98;;;11.10;;
4430;SDS011;2228;48.140;11.488;2022-12-07T03:49:55;18.80;;;11.48;;
4430;SDS011;2228;48.140;11.488;2022-12-07T03:52:28;17.70;;;11.07;;
4430;SDS011;2228;48.140;11.488;2022-12-07T03:55:02;14.80;;;10.25;;
4430;SDS011;2228;48.140;11.488;2022-12-07T03:57:35;15.68;;;10.85;;
4430;SDS011;2228;48.140;11.488;2022-12-07T04:00:04;16.15;;;11.05;;
4430;SDS011;2228;48.140;11.488;2022-12-07T04:02:34;17.08;;;11.15;;
4430;SDS011;2228;48.140;11.488;2022-12-07T04:05:02;16.33;;;10.77;;
4430;SDS011;2228;48.140;11.488;2022-12-07T04:07:29;17.95;;;11.27;;
4430;SDS011;2228;48.140;11.488;2022-12-07T04:09:56;19.35;;;12.02;;
4430;SDS011;2228;48.140;11.488;2022-12-07T04:12:23;18.27;;;12.30;;
4430;SDS011;2228;48.140;11.488;2022-12-07T04:14:50;21.75;;;12.20;;
4430;SDS011;2228;48.140;11.488;2022-12-07T04:17:17;19.63;;;12.15;;
4430;SDS011;2228;48.140;11.488;2022-12-07T04:19:46;16.83;;;10.80;;
4430;SDS011;2228;48.140;11.488;2022-12-07T04:22:13;23.83;;;12.90;;
4430;SDS011;2228;48.140;11.488;2022-12-07T04:24:40;20.38;;;12.30;;
4430;SDS011;2228;48.140;11.488;2022-12-07T04:27:07;17.75;;;11.60;;
4430;SDS011;2228;48.140;11.488;2022-12-07T04:29:34;21.77;;;13.13;;
4430;SDS011;2228;48.140;11.488;2022-12-07T04:32:01;19.80;;;12.40;;
4430;SDS011;2228;48.140;11.488;2022-12-07T04:34:28;21.10;;;13.95;;
4430;SDS011;2228;48.140;11.488;2022-12-07T04:36:56;19.90;;;13.03;;
4430;SDS011;2228;48.140;11.488;2022-12-07T04:39:24;19.85;;;12.20;;
4430;SDS011;2228;48.140;11.488;2022-12-07T04:41:53;22.00;;;13.20;;
4430;SDS011;2228;48.140;11.488;2022-12-07T04:44:21;22.38;;;13.63;;
4430;SDS011;2228;48.140;11.488;2022-12-07T04:46:48;23.27;;;14.07;;
4430;SDS011;2228;48.140;11.488;2022-12-07T04:49:16;22.90;;;12.80;;
4430;SDS011;2228;48.140;11.488;2022-12-07T04:51:43;21.75;;;13.02;;
4430;SDS011;2228;48.140;11.488;2022-12-07T04:54:12;22.55;;;13.10;;
4430;SDS011;2228;48.140;11.488;2022-12-07T04:56:40;21.20;;;13.15;;
4430;SDS011;2228;48.140;11.488;2022-12-07T04:59:08;20.23;;;12.50;;
4430;SDS011;2228;48.140;11.488;2022-12-07T05:01:36;22.47;;;13.80;;
4430;SDS011;2228;48.140;11.488;2022-12-07T05:04:04;20.33;;;12.73;;
4430;SDS011;2228;48.140;11.488;2022-12-07T05:06:31;21.20;;;13.50;;
4430;SDS011;2228;48.140;11.488;2022-12-07T05:08:58;22.30;;;14.40;;
4430;SDS011;2228;48.140;11.488;2022-12-07T05:11:27;21.00;;;12.88;;
4430;SDS011;2228;48.140;11.488;2022-12-07T05:14:08;24.60;;;14.73;;
4430;SDS011;2228;48.140;11.488;2022-12-07T05:16:38;22.08;;;12.80;;
4430;SDS011;2228;48.140;11.488;2022-12-07T05:19:05;24.65;;;14.07;;
4430;SDS011;2228;48.140;11.488;2022-12-07T05:21:33;24.53;;;14.23;;
4430;SDS011;2228;48.140;11.488;2022-12-07T05:24:00;21.02;;;12.80;;
4430;SDS011;2228;48.140;11.488;2022-12-07T05:26:29;22.30;;;13.65;;
4430;SDS011;2228;48.140;11.488;2022-12-07T05:28:56;21.20;;;12.73;;
4430;SDS011;2228;48.140;11.488;2022-12-07T05:31:24;21.92;;;13.20;;
4430;SDS011;2228;48.140;11.488;2022-12-07T05:33:52;22.95;;;13.73;;
4430;SDS011;2228;48.140;11.488;2022-12-07T05:36:19;23.05;;;14.70;;
4430;SDS011;2228;48.140;11.488;2022-12-07T05:38:47;22.65;;;14.20;;
4430;SDS011;2228;48.140;11.488;2022-12-07T05:41:15;21.25;;;13.65;;
4430;SDS011;2228;48.140;11.488;2022-12-07T05:44:03;22.40;;;13.60;;
4430;SDS011;2228;48.140;11.488;2022-12-07T05:46:30;22.55;;;13.82;;
4430;SDS011;2228;48.140;11.488;2022-12-07T05:48:57;22.58;;;14.63;;
4430;SDS011;2228;48.140;11.488;2022-12-07T05:51:24;22.90;;;14.45;;
4430;SDS011;2228;48.140;11.488;2022-12-07T05:53:52;24.58;;;15.55;;
4430;SDS011;2228;48.140;11.488;2022-12-07T05:56:19;28.43;;;16.00;;
4430;SDS011;2228;48.140;11.488;2022-12-07T05:58:46;26.88;;;15.05;;
4430;SDS011;2228;48.140;11.488;2022-12-07T06:01:31;26.08;;;15.40;;
4430;SDS011;2228;48.140;11.488;2022-12-07T06:03:58;23.20;;;14.07;;
4430;SDS011;2228;48.140;11.488;2022-12-07T06:06:26;22.45;;;13.80;;
4430;SDS011;2228;48.140;11.488;2022-12-07T06:08:53;27.43;;;15.00;;
4430;SDS011;2228;48.140;11.488;2022-12-07T06:11:20;21.42;;;13.90;;
4430;SDS011;2228;48.140;11.488;2022-12-07T06:14:05;23.87;;;15.27;;
4430;SDS011;2228;48.140;11.488;2022-12-07T06:16:34;23.35;;;14.40;;
4430;SDS011;2228;48.140;11.488;2022-12-07T06:19:02;24.55;;;15.23;;
4430;SDS011;2228;48.140;11.488;2022-12-07T06:21:29;24.55;;;14.43;;
4430;SDS011;2228;48.140;11.488;2022-12-07T06:23:56;24.25;;;14.95;;
4430;SDS011;2228;48.140;11.488;2022-12-07T06:26:23;23.33;;;14.65;;
4430;SDS011;2228;48.140;11.488;2022-12-07T06:28:50;24.90;;;15.57;;
4430;SDS011;2228;48.140;11.488;2022-12-07T06:31:17;22.73;;;14.83;;
4430;SDS011;2228;48.140;11.488;2022-12-07T06:33:46;25.33;;;14.98;;
4430;SDS011;2228;48.140;11.488;2022-12-07T06:36:13;23.70;;;14.63;;
4430;SDS011;2228;48.140;11.488;2022-12-07T06:38:40;24.17;;;14.18;;
4430;SDS011;2228;48.140;11.488;2022-12-07T06:41:07;24.80;;;15.40;;
4430;SDS011;2228;48.140;11.488;2022-12-07T06:43:34;27.80;;;15.52;;
4430;SDS011;2228;48.140;11.488;2022-12-07T06:46:01;25.40;;;16.38;;
4430;SDS011;2228;48.140;11.488;2022-12-07T06:48:28;24.25;;;15.25;;
4430;SDS011;2228;48.140;11.488;2022-12-07T06:50:56;25.02;;;15.50;;
4430;SDS011;2228;48.140;11.488;2022-12-07T06:53:24;23.75;;;15.02;;
4430;SDS011;2228;48.140;11.488;2022-12-07T06:55:51;25.98;;;15.32;;
4430;SDS011;2228;48.140;11.488;2022-12-07T06:58:18;25.58;;;15.57;;
4430;SDS011;2228;48.140;11.488;2022-12-07T07:00:45;27.08;;;15.75;;
4430;SDS011;2228;48.140;11.488;2022-12-07T07:03:14;28.05;;;15.80;;
4430;SDS011;2228;48.140;11.488;2022-12-07T07:05:41;26.95;;;15.50;;
4430;SDS011;2228;48.140;11.488;2022-12-07T07:08:10;28.00;;;16.20;;
4430;SDS011;2228;48.140;11.488;2022-12-07T07:10:38;27.80;;;16.10;;
4430;SDS011;2228;48.140;11.488;2022-12-07T07:13:05;28.03;;;16.40;;
4430;SDS011;2228;48.140;11.488;2022-12-07T07:15:33;29.48;;;16.60;;
4430;SDS011;2228;48.140;11.488;2022-12-07T07:18:00;26.90;;;15.45;;
4430;SDS011;2228;48.140;11.488;2022-12-07T07:20:28;27.03;;;15.40;;
4430;SDS011;2228;48.140;11.488;2022-12-07T07:22:55;24.80;;;15.82;;
4430;SDS011;2228;48.140;11.488;2022-12-07T07:25:24;25.48;;;15.18;;
4430;SDS011;2228;48.140;11.488;2022-12-07T07:27:51;28.05;;;16.55;;
4430;SDS011;2228;48.140;11.488;2022-12-07T07:30:18;22.80;;;14.32;;
4430;SDS011;2228;48.140;11.488;2022-12-07T07:32:45;24.83;;;15.52;;
4430;SDS011;2228;48.140;11.488;2022-12-07T07:35:12;27.30;;;16.00;;
4430;SDS011;2228;48.140;11.488;2022-12-07T07:37:39;24.90;;;15.60;;
4430;SDS011;2228;48.140;11.488;2022-12-07T07:40:10;28.15;;;17.00;;
4430;SDS011;2228;48.140;11.488;2022-12-07T07:42:39;31.17;;;18.30;;
4430;SDS011;2228;48.140;11.488;2022-12-07T07:45:06;30.95;;;17.90;;
4430;SDS011;2228;48.140;11.488;2022-12-07T07:47:34;26.30;;;16.30;;
4430;SDS011;2228;48.140;11.488;2022-12-07T07:50:01;28.75;;;17.13;;
4430;SDS011;2228;48.140;11.488;2022-12-07T07:52:29;27.47;;;17.47;;
4430;SDS011;2228;48.140;11.488;2022-12-07T07:54:57;44.15;;;17.70;;
4430;SDS011;2228;48.140;11.488;2022-12-07T07:57:24;31.30;;;16.95;;
4430;SDS011;2228;48.140;11.488;2022-12-07T07:59:52;25.95;;;16.00;;
4430;SDS011;2228;48.140;11.488;2022-12-07T08:02:20;28.67;;;15.75;;
4430;SDS011;2228;48.140;11.488;2022-12-07T08:04:47;29.73;;;17.50;;
4430;SDS011;2228;48.140;11.488;2022-12-07T08:07:14;28.90;;;16.42;;
4430;SDS011;2228;48.140;11.488;2022-12-07T08:09:42;30.33;;;18.42;;
4430;SDS011;2228;48.140;11.488;2022-12-07T08:12:09;34.85;;;18.48;;
4430;SDS011;2228;48.140;11.488;2022-12-07T08:14:36;29.90;;;17.52;;
4430;SDS011;2228;48.140;11.488;2022-12-07T08:17:04;32.17;;;17.67;;
4430;SDS011;2228;48.140;11.488;2022-12-07T08:19:32;29.95;;;18.23;;
4430;SDS011;2228;48.140;11.488;2022-12-07T08:21:59;30.43;;;17.80;;
4430;SDS011;2228;48.140;11.488;2022-12-07T08:24:26;30.38;;;16.50;;
4430;SDS011;2228;48.140;11.488;2022-12-07T08:26:53;28.75;;;17.30;;
4430;SDS011;2228;48.140;11.488;2022-12-07T08:29:20;28.85;;;17.23;;
4430;SDS011;2228;48.140;11.488;2022-12-07T08:31:47;26.63;;;17.13;;
4430;SDS011;2228;48.140;11.488;2022-12-07T08:34:16;27.50;;;16.45;;
4430;SDS011;2228;48.140;11.488;2022-12-07T08:36:43;28.05;;;16.27;;
4430;SDS011;2228;48.140;11.488;2022-12-07T08:39:10;28.10;;;17.95;;
4430;SDS011;2228;48.140;11.488;2022-12-07T08:41:37;27.95;;;16.15;;
4430;SDS011;2228;48.140;11.488;2022-12-07T08:44:04;29.45;;;16.77;;
4430;SDS011;2228;48.140;11.488;2022-12-07T08:46:32;26.45;;;16.08;;
4430;SDS011;2228;48.140;11.488;2022-12-07T08:49:03;24.33;;;15.37;;
4430;SDS011;2228;48.140;11.488;2022-12-07T08:51:35;24.37;;;15.80;;
4430;SDS011;2228;48.140;11.488;2022-12-07T08:54:03;23.90;;;14.30;;
4430;SDS011;2228;48.140;11.488;2022-12-07T08:56:33;21.67;;;13.50;;
4430;SDS011;2228;48.140;11.488;2022-12-07T08:59:00;22.02;;;12.52;;
4430;SDS011;2228;48.140;11.488;2022-12-07T09:01:28;20.38;;;12.77;;
4430;SDS011;2228;48.140;11.488;2022-12-07T09:03:55;20.73;;;12.77;;
4430;SDS011;2228;48.140;11.488;2022-12-07T09:06:21;19.38;;;12.77;;
4430;SDS011;2228;48.140;11.488;2022-12-07T09:08:51;17.30;;;11.50;;
4430;SDS011;2228;48.140;11.488;2022-12-07T09:11:21;18.87;;;12.23;;
4430;SDS011;2228;48.140;11.488;2022-12-07T09:13:48;19.88;;;12.20;;
4430;SDS011;2228;48.140;11.488;2022-12-07T09:16:14;22.10;;;12.37;;
4430;SDS011;2228;48.140;11.488;2022-12-07T09:18:41;20.07;;;12.80;;
4430;SDS011;2228;48.140;11.488;2022-12-07T09:21:08;19.45;;;13.02;;
4430;SDS011;2228;48.140;11.488;2022-12-07T09:23:36;19.60;;;12.95;;
4430;SDS011;2228;48.140;11.488;2022-12-07T09:26:04;18.88;;;11.70;;
4430;SDS011;2228;48.140;11.488;2022-12-07T09:28:32;18.30;;;11.10;;
4430;SDS011;2228;48.140;11.488;2022-12-07T09:30:58;17.13;;;11.10;;
4430;SDS011;2228;48.140;11.488;2022-12-07T09:33:26;16.60;;;11.40;;
4430;SDS011;2228;48.140;11.488;2022-12-07T09:35:53;17.63;;;11.30;;
4430;SDS011;2228;48.140;11.488;2022-12-07T09:38:20;18.43;;;11.50;;
4430;SDS011;2228;48.140;11.488;2022-12-07T09:40:47;17.55;;;11.90;;
4430;SDS011;2228;48.140;11.488;2022-12-07T09:43:17;18.70;;;12.05;;
4430;SDS011;2228;48.140;11.488;2022-12-07T09:45:50;18.70;;;11.57;;
4430;SDS011;2228;48.140;11.488;2022-12-07T09:48:25;17.00;;;11.65;;
4430;SDS011;2228;48.140;11.488;2022-12-07T09:51:11;19.38;;;11.40;;
4430;SDS011;2228;48.140;11.488;2022-12-07T09:53:41;17.50;;;11.90;;
4430;SDS011;2228;48.140;11.488;2022-12-07T09:56:10;16.00;;;10.60;;
4430;SDS011;2228;48.140;11.488;2022-12-07T09:58:41;17.77;;;11.10;;
4430;SDS011;2228;48.140;11.488;2022-12-07T10:01:10;17.42;;;11.40;;
4430;SDS011;2228;48.140;11.488;2022-12-07T10:03:45;15.48;;;10.80;;
4430;SDS011;2228;48.140;11.488;2022-12-07T10:06:30;16.23;;;10.93;;
4430;SDS011;2228;48.140;11.488;2022-12-07T10:08:57;16.67;;;10.70;;
4430;SDS011;2228;48.140;11.488;2022-12-07T10:11:24;16.13;;;10.50;;
4430;SDS011;2228;48.140;11.488;2022-12-07T10:13:53;15.70;;;10.80;;
4430;SDS011;2228;48.140;11.488;2022-12-07T10:16:31;15.32;;;10.90;;
4430;SDS011;2228;48.140;11.488;2022-12-07T10:19:17;15.65;;;10.02;;
4430;SDS011;2228;48.140;11.488;2022-12-07T10:21:58;16.42;;;10.45;;
4430;SDS011;2228;48.140;11.488;2022-12-07T10:24:43;16.05;;;10.48;;
4430;SDS011;2228;48.140;11.488;2022-12-07T10:27:25;17.00;;;10.68;;
4430;SDS011;2228;48.140;11.488;2022-12-07T10:30:01;14.77;;;9.90;;
4430;SDS011;2228;48.140;11.488;2022-12-07T10:32:35;13.70;;;9.30;;
4430;SDS011;2228;48.140;11.488;2022-12-07T10:35:18;14.40;;;9.38;;
4430;SDS011;2228;48.140;11.488;2022-12-07T10:37:49;14.48;;;8.98;;
4430;SDS011;2228;48.140;11.488;2022-12-07T10:40:24;12.95;;;9.50;;
4430;SDS011;2228;48.140;11.488;2022-12-07T10:43:00;12.07;;;8.70;;
4430;SDS011;2228;48.140;11.488;2022-12-07T10:45:34;14.00;;;8.68;;
4430;SDS011;2228;48.140;11.488;2022-12-07T10:48:08;12.95;;;8.93;;
4430;SDS011;2228;48.140;11.488;2022-12-07T10:50:47;13.05;;;8.77;;
4430;SDS011;2228;48.140;11.488;2022-12-07T10:53:25;13.27;;;8.88;;
4430;SDS011;2228;48.140;11.488;2022-12-07T10:56:06;12.80;;;7.90;;
4430;SDS011;2228;48.140;11.488;2022-12-07T10:58:55;10.90;;;7.63;;
4430;SDS011;2228;48.140;11.488;2022-12-07T11:01:41;10.82;;;7.43;;
4430;SDS011;2228;48.140;11.488;2022-12-07T11:04:18;9.88;;;6.78;;
4430;SDS011;2228;48.140;11.488;2022-12-07T11:06:54;10.85;;;7.00;;
4430;SDS011;2228;48.140;11.488;2022-12-07T11:12:29;9.23;;;6.38;;
4430;SDS011;2228;48.140;11.488;2022-12-07T11:15:12;9.77;;;6.68;;
4430;SDS011;2228;48.140;11.488;2022-12-07T11:17:48;11.40;;;7.82;;
4430;SDS011;2228;48.140;11.488;2022-12-07T11:20:25;10.20;;;7.05;;
4430;SDS011;2228;48.140;11.488;2022-12-07T11:23:03;11.43;;;7.90;;
4430;SDS011;2228;48.140;11.488;2022-12-07T11:25:41;10.68;;;7.22;;
4430;SDS011;2228;48.140;11.488;2022-12-07T11:28:18;10.65;;;7.60;;
4430;SDS011;2228;48.140;11.488;2022-12-07T11:30:59;10.43;;;7.25;;
4430;SDS011;2228;48.140;11.488;2022-12-07T11:33:39;10.40;;;7.40;;
4430;SDS011;2228;48.140;11.488;2022-12-07T11:36:16;10.63;;;6.70;;
4430;SDS011;2228;48.140;11.488;2022-12-07T11:38:57;12.60;;;7.63;;
4430;SDS011;2228;48.140;11.488;2022-12-07T11:41:28;11.02;;;6.78;;
4430;SDS011;2228;48.140;11.488;2022-12-07T11:44:00;12.00;;;7.50;;
4430;SDS011;2228;48.140;11.488;2022-12-07T11:46:34;11.13;;;7.10;;
4430;SDS011;2228;48.140;11.488;2022-12-07T11:49:12;10.85;;;7.18;;
4430;SDS011;2228;48.140;11.488;2022-12-07T11:51:46;11.27;;;6.90;;
4430;SDS011;2228;48.140;11.488;2022-12-07T11:54:16;12.07;;;6.90;;
4430;SDS011;2228;48.140;11.488;2022-12-07T11:56:45;10.83;;;7.63;;
4430;SDS011;2228;48.140;11.488;2022-12-07T11:59:17;11.57;;;7.18;;
4430;SDS011;2228;48.140;11.488;2022-12-07T12:01:53;9.88;;;6.95;;
4430;SDS011;2228;48.140;11.488;2022-12-07T12:04:32;15.15;;;6.90;;
4430;SDS011;2228;48.140;11.488;2022-12-07T12:07:10;11.18;;;7.63;;
4430;SDS011;2228;48.140;11.488;2022-12-07T12:09:45;10.98;;;6.78;;
4430;SDS011;2228;48.140;11.488;2022-12-07T12:15:19;10.35;;;6.50;;
4430;SDS011;2228;48.140;11.488;2022-12-07T12:21:00;9.93;;;5.40;;
4430;SDS011;2228;48.140;11.488;2022-12-07T12:23:34;8.63;;;5.88;;
4430;SDS011;2228;48.140;11.488;2022-12-07T12:26:06;11.07;;;6.38;;
4430;SDS011;2228;48.140;11.488;2022-12-07T12:28:41;8.95;;;5.95;;
4430;SDS011;2228;48.140;11.488;2022-12-07T12:31:28;9.25;;;6.25;;
4430;SDS011;2228;48.140;11.488;2022-12-07T12:34:02;9.95;;;5.70;;
4430;SDS011;2228;48.140;11.488;2022-12-07T12:36:45;9.55;;;6.22;;
4430;SDS011;2228;48.140;11.488;2022-12-07T12:39:13;10.88;;;6.95;;
4430;SDS011;2228;48.140;11.488;2022-12-07T12:47:53;8.80;;;5.75;;
4430;SDS011;2228;48.140;11.488;2022-12-07T12:50:23;7.95;;;5.60;;
4430;SDS011;2228;48.140;11.488;2022-12-07T12:53:02;8.63;;;5.75;;
4430;SDS011;2228;48.140;11.488;2022-12-07T12:55:54;9.07;;;5.70;;
4430;SDS011;2228;48.140;11.488;2022-12-07T12:59:18;11.82;;;6.53;;
4430;SDS011;2228;48.140;11.488;2022-12-07T13:01:50;10.00;;;6.28;;
4430;SDS011;2228;48.140;11.488;2022-12-07T13:10:22;8.52;;;5.72;;
4430;SDS011;2228;48.140;11.488;2022-12-07T13:13:00;10.45;;;6.18;;
4430;SDS011;2228;48.140;11.488;2022-12-07T13:15:36;11.73;;;6.85;;
4430;SDS011;2228;48.140;11.488;2022-12-07T13:18:21;10.20;;;6.80;;
4430;SDS011;2228;48.140;11.488;2022-12-07T13:20:51;10.70;;;6.57;;
4430;SDS011;2228;48.140;11.488;2022-12-07T13:23:24;10.65;;;6.55;;
4430;SDS011;2228;48.140;11.488;2022-12-07T13:26:09;12.23;;;6.93;;
4430;SDS011;2228;48.140;11.488;2022-12-07T13:28:41;11.65;;;7.50;;
4430;SDS011;2228;48.140;11.488;2022-12-07T13:31:14;11.70;;;7.10;;
4430;SDS011;2228;48.140;11.488;2022-12-07T13:33:56;11.45;;;7.00;;
4430;SDS011;2228;48.140;11.488;2022-12-07T13:36:24;14.75;;;7.55;;
4430;SDS011;2228;48.140;11.488;2022-12-07T13:38:54;9.38;;;6.43;;
4430;SDS011;2228;48.140;11.488;2022-12-07T13:41:24;12.80;;;7.13;;
4430;SDS011;2228;48.140;11.488;2022-12-07T13:43:59;13.25;;;7.57;;
4430;SDS011;2228;48.140;11.488;2022-12-07T13:46:31;13.27;;;7.68;;
4430;SDS011;2228;48.140;11.488;2022-12-07T13:49:20;14.15;;;7.93;;
4430;SDS011;2228;48.140;11.488;2022-12-07T13:51:49;13.77;;;8.13;;
4430;SDS011;2228;48.140;11.488;2022-12-07T13:54:16;12.10;;;6.90;;
4430;SDS011;2228;48.140;11.488;2022-12-07T13:56:46;12.20;;;7.32;;
4430;SDS011;2228;48.140;11.488;2022-12-07T13:59:17;13.10;;;7.35;;
4430;SDS011;2228;48.140;11.488;2022-12-07T14:01:46;9.23;;;5.63;;
4430;SDS011;2228;48.140;11.488;2022-12-07T14:07:00;11.50;;;5.60;;
4430;SDS011;2228;48.140;11.488;2022-12-07T14:09:52;8.20;;;5.00;;
4430;SDS011;2228;48.140;11.488;2022-12-07T14:12:22;6.35;;;4.68;;
4430;SDS011;2228;48.140;11.488;2022-12-07T14:14:50;7.85;;;5.20;;
4430;SDS011;2228;48.140;11.488;2022-12-07T14:17:20;10.13;;;5.00;;
4430;SDS011;2228;48.140;11.488;2022-12-07T14:19:49;8.50;;;4.93;;
4430;SDS011;2228;48.140;11.488;2022-12-07T14:22:24;6.67;;;3.97;;
4430;SDS011;2228;48.140;11.488;2022-12-07T14:24:58;13.35;;;4.78;;
4430;SDS011;2228;48.140;11.488;2022-12-07T14:27:31;6.73;;;4.10;;
4430;SDS011;2228;48.140;11.488;2022-12-07T14:30:01;10.05;;;4.93;;
4430;SDS011;2228;48.140;11.488;2022-12-07T14:32:29;9.18;;;4.57;;
4430;SDS011;2228;48.140;11.488;2022-12-07T14:35:00;7.65;;;4.50;;
4430;SDS011;2228;48.140;11.488;2022-12-07T14:37:30;9.68;;;5.40;;
4430;SDS011;2228;48.140;11.488;2022-12-07T14:39:57;8.60;;;5.18;;
4430;SDS011;2228;48.140;11.488;2022-12-07T14:42:25;8.52;;;4.90;;
4430;SDS011;2228;48.140;11.488;2022-12-07T14:44:56;8.98;;;5.10;;
4430;SDS011;2228;48.140;11.488;2022-12-07T14:47:24;10.87;;;4.90;;
4430;SDS011;2228;48.140;11.488;2022-12-07T14:49:52;9.05;;;5.90;;
4430;SDS011;2228;48.140;11.488;2022-12-07T14:52:21;10.95;;;5.80;;
4430;SDS011;2228;48.140;11.488;2022-12-07T14:54:50;10.23;;;5.68;;
4430;SDS011;2228;48.140;11.488;2022-12-07T14:57:19;10.05;;;5.95;;
4430;SDS011;2228;48.140;11.488;2022-12-07T14:59:46;8.83;;;5.63;;
4430;SDS011;2228;48.140;11.488;2022-12-07T15:02:14;10.00;;;6.20;;
4430;SDS011;2228;48.140;11.488;2022-12-07T15:04:41;10.85;;;6.38;;
4430;SDS011;2228;48.140;11.488;2022-12-07T15:07:10;10.15;;;6.60;;
4430;SDS011;2228;48.140;11.488;2022-12-07T15:09:41;12.73;;;6.80;;
4430;SDS011;2228;48.140;11.488;2022-12-07T15:12:09;14.73;;;7.90;;
4430;SDS011;2228;48.140;11.488;2022-12-07T15:14:36;10.43;;;6.10;;
4430;SDS011;2228;48.140;11.488;2022-12-07T15:17:02;11.33;;;7.20;;
4430;SDS011;2228;48.140;11.488;2022-12-07T15:19:31;14.70;;;8.85;;
4430;SDS011;2228;48.140;11.488;2022-12-07T15:21:58;12.32;;;7.88;;
4430;SDS011;2228;48.140;11.488;2022-12-07T15:24:25;10.70;;;6.80;;
4430;SDS011;2228;48.140;11.488;2022-12-07T15:26:52;13.10;;;7.55;;
4430;SDS011;2228;48.140;11.488;2022-12-07T15:29:19;14.50;;;7.70;;